Time;durP1;ratioP1;P1;durP2;ratioP2;P2;SDS_P1;SDS_P2;PMS_P1;PMS_P2;Temp;Humidity;BMP_temperature;BMP_pressure;BME280_temperature;BME280_humidity;BME280_pressure;Samples;Min_cycle;Max_cycle;Signal;HPM_P1;HPM_P2
2024/04/15 00:01:08;;;;;;;6.32;1.92;;;13.60;65.30;;;;;;5467940;26;20009;-70
2024/04/15 00:03:54;;;;;;;4.82;1.42;;;13.60;65.30;;;;;;5463739;26;20331;-70
2024/04/15 00:06:40;;;;;;;5.90;1.92;;;13.60;65.40;;;;;;5478605;26;20072;-70
2024/04/15 00:09:26;;;;;;;4.75;1.65;;;13.50;65.40;;;;;;5482693;26;20001;-70
2024/04/15 00:12:12;;;;;;;2.47;1.30;;;13.50;65.50;;;;;;5472907;26;20000;-69
2024/04/15 00:14:58;;;;;;;3.45;1.40;;;13.40;65.50;;;;;;5466964;26;20017;-70
2024/04/15 00:17:44;;;;;;;7.55;1.77;;;13.40;65.80;;;;;;5479416;26;20006;-69
2024/04/15 00:20:30;;;;;;;6.93;1.95;;;13.20;66.10;;;;;;5470880;26;20002;-72
2024/04/15 00:23:16;;;;;;;4.65;1.67;;;13.10;66.20;;;;;;5452333;26;20010;-71
2024/04/15 00:26:02;;;;;;;4.65;1.65;;;13.10;66.40;;;;;;5479943;26;20013;-73
2024/04/15 00:28:48;;;;;;;8.35;1.85;;;13.00;66.70;;;;;;5452845;26;20067;-73
2024/04/15 00:31:34;;;;;;;4.97;1.90;;;12.90;66.90;;;;;;5478873;26;19998;-72
2024/04/15 00:34:20;;;;;;;7.53;2.28;;;12.80;67.10;;;;;;5481608;26;19998;-75
2024/04/15 00:37:09;;;;;;;7.03;1.77;;;12.70;67.60;;;;;;5479071;26;20013;-76
2024/04/15 00:39:55;;;;;;;5.53;1.73;;;12.60;68.20;;;;;;5483036;26;20398;-72
2024/04/15 00:42:41;;;;;;;4.88;1.95;;;12.50;68.40;;;;;;5484735;26;19994;-72
2024/04/15 00:45:31;;;;;;;3.58;1.63;;;12.40;68.30;;;;;;5453178;26;20002;-71
2024/04/15 00:48:18;;;;;;;8.85;3.22;;;12.30;68.70;;;;;;5472798;26;20009;-72
2024/04/15 00:51:04;;;;;;;4.60;1.45;;;12.40;68.60;;;;;;5458621;26;19998;-71
2024/04/15 00:53:52;;;;;;;5.03;2.17;;;12.40;68.60;;;;;;5465878;26;19999;-71
2024/04/15 00:56:38;;;;;;;4.57;1.95;;;12.40;68.90;;;;;;5464054;26;20013;-71
2024/04/15 00:59:25;;;;;;;5.32;1.90;;;12.40;69.00;;;;;;5488139;26;19994;-71
2024/04/15 01:02:11;;;;;;;6.90;1.30;;;12.30;69.20;;;;;;5485167;26;20012;-72
2024/04/15 01:04:58;;;;;;;4.78;2.30;;;12.30;69.30;;;;;;5472368;26;20047;-72
2024/04/15 01:07:44;;;;;;;4.68;1.50;;;12.30;69.50;;;;;;5483209;26;20386;-72
2024/04/15 01:10:30;;;;;;;5.72;2.65;;;12.30;69.50;;;;;;5459018;26;20438;-71
2024/04/15 01:13:16;;;;;;;4.90;1.73;;;12.30;69.60;;;;;;5468797;26;20006;-71
2024/04/15 01:16:02;;;;;;;8.65;1.88;;;12.30;69.50;;;;;;5477671;26;20498;-71
2024/04/15 01:18:48;;;;;;;5.65;1.77;;;12.30;69.60;;;;;;5467182;26;20002;-71
2024/04/15 01:21:34;;;;;;;4.30;1.85;;;12.30;69.60;;;;;;5485783;26;19997;-70
2024/04/15 01:24:20;;;;;;;7.57;1.98;;;12.40;69.60;;;;;;5479035;26;19994;-71
2024/04/15 01:27:06;;;;;;;4.65;1.92;;;12.40;69.60;;;;;;5452457;26;20083;-70
2024/04/15 01:29:52;;;;;;;5.15;2.13;;;12.40;70.10;;;;;;5462011;26;20007;-71
2024/04/15 01:32:38;;;;;;;8.80;2.00;;;12.40;70.20;;;;;;5483301;26;20026;-72
2024/04/15 01:35:24;;;;;;;5.95;1.80;;;12.40;70.30;;;;;;5483623;26;20350;-72
2024/04/15 01:38:10;;;;;;;5.45;2.10;;;12.40;70.40;;;;;;5457494;26;20014;-73
2024/04/15 01:40:56;;;;;;;4.07;1.85;;;12.40;70.40;;;;;;5480596;26;20076;-72
2024/04/15 01:43:42;;;;;;;6.55;2.03;;;12.40;70.50;;;;;;5451285;26;20006;-72
2024/04/15 01:46:28;;;;;;;7.90;2.15;;;12.40;70.50;;;;;;5462895;26;20075;-72
2024/04/15 01:49:14;;;;;;;7.28;1.73;;;12.50;70.50;;;;;;5454194;26;20414;-72
2024/04/15 01:52:00;;;;;;;6.13;2.13;;;12.50;70.40;;;;;;5472511;26;19998;-72
2024/04/15 01:54:47;;;;;;;6.45;1.88;;;12.40;70.60;;;;;;5486075;26;20356;-71
2024/04/15 01:57:33;;;;;;;5.65;1.85;;;12.40;70.60;;;;;;5469962;26;20316;-71
2024/04/15 02:00:19;;;;;;;7.28;2.65;;;12.50;70.50;;;;;;5478765;26;19994;-72
2024/04/15 02:03:05;;;;;;;11.02;2.42;;;12.50;70.40;;;;;;5460721;26;20004;-72
2024/04/15 02:05:51;;;;;;;7.68;2.53;;;12.50;70.20;;;;;;5461498;26;20418;-72
2024/04/15 02:08:37;;;;;;;3.60;1.65;;;12.50;70.10;;;;;;5467063;26;20451;-73
2024/04/15 02:11:23;;;;;;;7.18;1.92;;;12.60;70.00;;;;;;5469524;26;20075;-73
2024/04/15 02:14:09;;;;;;;3.63;1.60;;;12.50;69.80;;;;;;5446221;26;20009;-74
2024/04/15 02:16:55;;;;;;;7.15;2.38;;;12.50;69.60;;;;;;5477886;26;20469;-73
2024/04/15 02:19:41;;;;;;;8.82;2.45;;;12.50;69.60;;;;;;5452715;26;20034;-73
2024/04/15 02:22:27;;;;;;;5.35;1.60;;;12.50;69.60;;;;;;5470175;26;20063;-73
2024/04/15 02:25:12;;;;;;;4.60;1.65;;;12.50;69.50;;;;;;5483908;26;20074;-73
2024/04/15 02:27:58;;;;;;;4.97;1.35;;;12.50;69.50;;;;;;5464292;26;20075;-74
2024/04/15 02:30:48;;;;;;;5.72;1.50;;;12.40;69.40;;;;;;5451213;26;20039;-72
2024/04/15 02:33:34;;;;;;;6.55;2.08;;;12.50;69.50;;;;;;5486245;26;20070;-72
2024/04/15 02:36:20;;;;;;;9.05;2.38;;;12.50;69.50;;;;;;5472948;26;19994;-73
2024/04/15 02:39:07;;;;;;;9.45;2.58;;;12.40;69.70;;;;;;5484908;26;20026;-73
2024/04/15 02:41:53;;;;;;;5.53;1.77;;;12.50;69.90;;;;;;5451946;26;20013;-73
2024/04/15 02:44:39;;;;;;;7.03;1.80;;;12.50;69.90;;;;;;5454339;26;20013;-73
2024/04/15 02:47:25;;;;;;;3.88;1.77;;;12.50;69.90;;;;;;5475056;26;20030;-73
2024/04/15 02:50:10;;;;;;;7.60;2.17;;;12.50;70.10;;;;;;5460116;26;19998;-74
2024/04/15 02:52:56;;;;;;;8.20;1.85;;;12.60;70.20;;;;;;5466235;26;20435;-74
2024/04/15 02:55:42;;;;;;;5.10;1.77;;;12.60;70.20;;;;;;5473171;26;20041;-74
2024/04/15 02:58:28;;;;;;;3.92;1.73;;;12.60;70.10;;;;;;5443568;26;20427;-74
2024/04/15 03:01:14;;;;;;;3.20;1.70;;;12.60;70.10;;;;;;5480535;26;20457;-74
2024/04/15 03:04:00;;;;;;;5.85;1.35;;;12.60;70.30;;;;;;5469854;26;20326;-74
2024/04/15 03:06:46;;;;;;;5.90;1.95;;;12.60;69.80;;;;;;5483723;26;20002;-74
2024/04/15 03:09:32;;;;;;;6.53;1.88;;;12.60;70.30;;;;;;5471536;26;19995;-75
2024/04/15 03:12:18;;;;;;;4.97;1.70;;;12.50;69.60;;;;;;5478789;26;20002;-74
2024/04/15 03:15:04;;;;;;;6.40;2.30;;;12.60;69.70;;;;;;5479294;26;20466;-73
2024/04/15 03:17:50;;;;;;;5.07;2.20;;;12.60;69.70;;;;;;5484519;26;20005;-73
2024/04/15 03:20:36;;;;;;;7.32;2.03;;;12.60;69.70;;;;;;5455460;26;20374;-74
2024/04/15 03:23:22;;;;;;;5.65;2.35;;;12.60;69.60;;;;;;5457031;26;20003;-74
2024/04/15 03:26:08;;;;;;;6.07;1.70;;;12.60;69.60;;;;;;5480581;26;20035;-74
2024/04/15 03:28:54;;;;;;;4.28;1.67;;;12.70;69.50;;;;;;5479125;26;19994;-74
2024/04/15 03:31:40;;;;;;;3.03;1.55;;;12.70;69.20;;;;;;5485964;26;19994;-74
2024/04/15 03:34:26;;;;;;;4.68;1.58;;;12.60;69.20;;;;;;5455757;26;19994;-74
2024/04/15 03:37:11;;;;;;;5.43;1.40;;;12.60;69.20;;;;;;5476710;26;20430;-75
2024/04/15 03:39:57;;;;;;;3.47;1.95;;;12.60;69.10;;;;;;5465287;26;19998;-74
2024/04/15 03:42:43;;;;;;;7.05;1.65;;;12.60;69.30;;;;;;5469829;26;20002;-74
2024/04/15 03:45:29;;;;;;;11.63;2.38;;;12.60;69.30;;;;;;5455833;26;20009;-75
2024/04/15 03:48:15;;;;;;;4.97;2.05;;;12.60;69.40;;;;;;5460370;26;19995;-74
2024/04/15 03:51:01;;;;;;;5.07;1.65;;;12.70;69.40;;;;;;5467627;26;19994;-74
2024/04/15 03:53:47;;;;;;;6.78;2.53;;;12.70;69.50;;;;;;5487192;26;20001;-74
2024/04/15 03:56:36;;;;;;;4.75;1.45;;;12.70;69.50;;;;;;5469066;26;20458;-73
2024/04/15 03:59:22;;;;;;;3.60;1.48;;;12.60;69.40;;;;;;5475040;26;19999;-74
2024/04/15 04:02:07;;;;;;;4.10;1.45;;;12.60;69.40;;;;;;5455611;26;20010;-74
2024/04/15 04:04:53;;;;;;;3.28;1.60;;;12.50;69.40;;;;;;5450668;26;20009;-74
2024/04/15 04:07:39;;;;;;;4.88;1.60;;;12.50;69.40;;;;;;5460075;26;20438;-74
2024/04/15 04:10:25;;;;;;;5.43;1.60;;;12.50;69.40;;;;;;5483581;26;20430;-74
2024/04/15 04:13:11;;;;;;;4.93;1.60;;;12.50;69.40;;;;;;5455384;26;20089;-75
2024/04/15 04:15:57;;;;;;;5.43;1.92;;;12.50;69.30;;;;;;5463286;26;20444;-75
2024/04/15 04:18:47;;;;;;;3.85;2.00;;;12.40;69.40;;;;;;5469933;26;20009;-75
2024/04/15 04:21:33;;;;;;;4.85;1.60;;;12.30;69.60;;;;;;5488446;26;20390;-76
2024/04/15 04:24:19;;;;;;;6.22;1.50;;;12.30;69.80;;;;;;5485818;26;20002;-76
2024/04/15 04:27:05;;;;;;;5.75;1.75;;;12.30;70.00;;;;;;5489121;26;19990;-73
2024/04/15 04:29:51;;;;;;;5.00;1.85;;;12.30;70.00;;;;;;5485159;26;20002;-75
2024/04/15 04:32:36;;;;;;;5.03;1.90;;;12.30;69.90;;;;;;5464517;26;20343;-74
2024/04/15 04:35:22;;;;;;;5.93;1.85;;;12.30;70.10;;;;;;5484361;26;19998;-74
2024/04/15 04:38:08;;;;;;;5.45;1.88;;;12.30;70.10;;;;;;5458847;26;19995;-74
2024/04/15 04:41:01;;;;;;;5.20;2.13;;;12.20;70.10;;;;;;5480936;26;19994;-74
2024/04/15 04:43:47;;;;;;;6.60;2.40;;;12.20;70.20;;;;;;5454639;26;20009;-74
2024/04/15 04:46:33;;;;;;;6.65;1.85;;;12.20;70.30;;;;;;5454279;26;19999;-74
2024/04/15 04:49:19;;;;;;;8.57;2.97;;;12.10;70.50;;;;;;5464160;26;20008;-74
2024/04/15 04:52:05;;;;;;;8.60;2.05;;;12.10;70.50;;;;;;5465886;26;19994;-73
2024/04/15 04:54:51;;;;;;;6.30;1.63;;;12.00;70.60;;;;;;5461708;26;20010;-74
2024/04/15 04:57:36;;;;;;;8.18;1.90;;;12.00;70.80;;;;;;5475872;26;20451;-74
2024/04/15 05:00:23;;;;;;;7.55;2.35;;;11.90;71.00;;;;;;5456975;26;20002;-74
2024/04/15 05:03:09;;;;;;;6.53;2.22;;;11.90;71.20;;;;;;5474810;26;19991;-74
2024/04/15 05:05:55;;;;;;;2.50;1.20;;;11.90;71.30;;;;;;5454948;26;20010;-74
2024/04/15 05:08:42;;;;;;;4.00;1.65;;;11.90;71.30;;;;;;5452478;26;19990;-74
2024/04/15 05:11:28;;;;;;;4.65;1.55;;;11.90;71.30;;;;;;5463363;26;20482;-75
2024/04/15 05:14:14;;;;;;;7.45;2.67;;;11.90;71.30;;;;;;5476836;26;20002;-72
2024/04/15 05:17:00;;;;;;;6.50;1.75;;;11.90;71.20;;;;;;5447451;26;20014;-74
2024/04/15 05:19:46;;;;;;;7.60;1.85;;;11.80;71.30;;;;;;5444367;26;20009;-72
2024/04/15 17:58:42;;;;;;;3.58;2.03;;;15.60;79.20;;;;;;5470868;26;20002;-71
2024/04/15 18:01:27;;;;;;;4.60;1.98;;;15.50;79.60;;;;;;5472320;25;20046;-72
2024/04/15 18:04:13;;;;;;;5.35;2.13;;;15.40;80.00;;;;;;5469100;26;20002;-72
2024/04/15 18:06:59;;;;;;;3.33;1.85;;;15.40;80.50;;;;;;5470137;26;20002;-71
2024/04/15 18:09:45;;;;;;;2.75;1.80;;;15.30;80.90;;;;;;5469752;26;19998;-73
2024/04/15 18:12:31;;;;;;;3.72;2.13;;;15.30;81.30;;;;;;5451811;26;20466;-72
2024/04/15 18:15:17;;;;;;;3.55;1.88;;;15.20;81.40;;;;;;5484656;26;20002;-72
2024/04/15 18:18:03;;;;;;;2.63;1.77;;;15.20;81.80;;;;;;5451787;26;19995;-72
2024/04/15 18:20:49;;;;;;;3.13;1.95;;;15.20;82.10;;;;;;5473091;26;20331;-72
2024/04/15 18:23:36;;;;;;;5.25;2.00;;;15.10;82.10;;;;;;5469809;26;19998;-68
2024/04/15 18:26:22;;;;;;;4.10;2.08;;;15.10;82.30;;;;;;5483961;26;20005;-75
2024/04/15 18:29:09;;;;;;;5.10;2.25;;;15.00;82.60;;;;;;5462628;26;19994;-72
2024/04/15 18:31:54;;;;;;;3.55;2.20;;;15.00;82.90;;;;;;5485437;26;20013;-73
2024/04/15 18:34:42;;;;;;;4.65;2.47;;;15.00;83.00;;;;;;5469038;26;19998;-72
2024/04/15 18:37:28;;;;;;;3.50;2.40;;;14.90;83.20;;;;;;5427909;26;20005;-72
2024/04/15 18:40:14;;;;;;;3.20;2.40;;;14.90;83.50;;;;;;5479305;26;20466;-72
2024/04/15 18:43:00;;;;;;;4.82;2.92;;;14.80;83.60;;;;;;5483211;26;20099;-72
2024/04/15 18:45:46;;;;;;;4.35;2.75;;;14.80;83.70;;;;;;5466876;26;20381;-72
2024/04/15 18:48:32;;;;;;;4.65;3.08;;;14.70;83.90;;;;;;5478929;26;20002;-72
2024/04/15 18:51:18;;;;;;;5.63;3.03;;;14.70;83.90;;;;;;5483828;26;19989;-72
2024/04/15 18:54:04;;;;;;;5.65;3.17;;;14.70;84.00;;;;;;5474757;26;19990;-71
2024/04/15 18:56:50;;;;;;;4.93;3.08;;;14.60;84.00;;;;;;5474799;26;20010;-71
2024/04/15 18:59:36;;;;;;;6.15;2.22;;;14.60;84.00;;;;;;5478278;26;19994;-72
2024/04/15 19:02:22;;;;;;;4.63;2.92;;;14.50;84.30;;;;;;5457060;26;19999;-72
2024/04/15 19:05:08;;;;;;;4.85;3.08;;;14.50;83.80;;;;;;5464446;26;20017;-72
2024/04/15 19:07:55;;;;;;;5.45;3.28;;;14.40;83.90;;;;;;5450013;26;20003;-72
2024/04/15 19:10:41;;;;;;;5.30;3.08;;;14.40;84.10;;;;;;5457174;26;20034;-72
2024/04/15 19:13:27;;;;;;;3.97;2.47;;;14.40;84.70;;;;;;5485837;26;19998;-72
2024/04/15 19:16:13;;;;;;;4.05;2.50;;;14.30;84.50;;;;;;5470782;26;19995;-72
2024/04/15 19:18:59;;;;;;;6.15;2.00;;;14.30;84.60;;;;;;5468922;26;20357;-72
2024/04/15 19:21:45;;;;;;;9.07;2.35;;;14.30;84.60;;;;;;5471995;26;20077;-72
2024/04/15 19:24:31;;;;;;;3.72;2.08;;;14.30;84.90;;;;;;5465027;26;19991;-72
2024/04/15 19:27:18;;;;;;;3.40;2.13;;;14.30;85.00;;;;;;5462143;26;20009;-72
2024/04/15 19:30:04;;;;;;;4.45;1.98;;;14.30;85.10;;;;;;5471851;26;19994;-73
2024/04/15 19:32:51;;;;;;;2.83;2.13;;;14.20;85.50;;;;;;5459605;26;20006;-71
2024/04/15 19:35:37;;;;;;;3.72;2.22;;;14.20;85.70;;;;;;5432061;26;20008;-71
2024/04/15 19:38:23;;;;;;;5.47;2.10;;;14.30;85.80;;;;;;5467995;26;20485;-72
2024/04/15 19:41:08;;;;;;;4.45;1.70;;;14.30;85.80;;;;;;5486946;26;20440;-72
2024/04/15 19:43:54;;;;;;;3.88;1.80;;;14.30;85.80;;;;;;5467860;26;20002;-72
2024/04/15 19:46:40;;;;;;;2.38;1.65;;;14.20;85.90;;;;;;5450339;26;19998;-72
2024/04/15 19:49:26;;;;;;;3.42;1.60;;;14.20;85.60;;;;;;5478805;26;20026;-72
2024/04/15 19:52:12;;;;;;;3.88;1.77;;;14.20;85.50;;;;;;5452709;26;20006;-71
2024/04/15 19:55:02;;;;;;;3.08;1.40;;;14.20;85.30;;;;;;5454982;26;20525;-73
2024/04/15 19:57:48;;;;;;;3.28;1.50;;;14.10;85.00;;;;;;5467373;26;20002;-73
2024/04/15 20:00:34;;;;;;;3.85;1.80;;;14.00;84.70;;;;;;5424375;26;20006;-73
2024/04/15 20:03:20;;;;;;;3.10;1.60;;;14.00;84.70;;;;;;5438299;26;19999;-73
2024/04/15 20:06:07;;;;;;;4.30;1.50;;;13.90;84.70;;;;;;5398045;26;19992;-81
2024/04/15 20:08:53;;;;;;;2.38;1.48;;;13.90;84.90;;;;;;5422130;26;20422;-75
2024/04/15 20:11:39;;;;;;;4.45;1.50;;;13.80;84.80;;;;;;5442706;26;19995;-74
2024/04/15 20:14:25;;;;;;;4.20;1.20;;;13.80;84.80;;;;;;5426081;26;19995;-75
2024/04/15 20:17:20;;;;;;;3.92;1.63;;;13.70;85.00;;;;;;5443201;26;19995;-78
2024/04/15 20:20:14;;;;;;;4.65;2.00;;;13.70;85.20;;;;;;5440613;26;19999;-78
2024/04/15 20:23:00;;;;;;;2.45;1.63;;;13.60;85.20;;;;;;5425671;26;20029;-76
2024/04/15 20:25:46;;;;;;;2.35;1.38;;;13.60;85.10;;;;;;5407354;26;20577;-82
2024/04/15 20:28:32;;;;;;;3.30;1.40;;;13.50;85.20;;;;;;5440555;26;19999;-81
2024/04/15 20:31:18;;;;;;;2.50;1.48;;;13.50;85.30;;;;;;5414912;26;20355;-73
2024/04/15 20:34:04;;;;;;;2.50;1.48;;;13.50;85.30;;;;;;5444828;26;20018;-80
2024/04/15 20:36:51;;;;;;;2.20;1.30;;;13.50;85.40;;;;;;5440143;26;19999;-82
2024/04/15 20:39:37;;;;;;;3.20;1.35;;;13.50;85.60;;;;;;5450199;26;20072;-80
2024/04/15 20:42:23;;;;;;;4.40;1.80;;;13.50;85.90;;;;;;5426419;26;19995;-80
2024/04/15 20:45:11;;;;;;;4.65;2.10;;;13.60;85.90;;;;;;5424609;26;20027;-79
2024/04/15 20:47:56;;;;;;;5.70;1.70;;;13.60;85.90;;;;;;5422068;26;19995;-81
2024/04/15 20:50:43;;;;;;;4.93;1.95;;;13.60;85.80;;;;;;5445689;26;20007;-80
2024/04/15 20:53:29;;;;;;;5.38;1.90;;;13.60;85.30;;;;;;5442017;26;19999;-69
2024/04/15 20:56:15;;;;;;;3.35;1.13;;;13.60;85.50;;;;;;5418215;26;20008;-68
2024/04/15 20:59:01;;;;;;;2.38;1.27;;;13.60;84.80;;;;;;5435873;26;20370;-67
2024/04/15 21:01:47;;;;;;;2.90;1.30;;;13.60;84.30;;;;;;5480168;26;20022;-67
2024/04/15 21:04:33;;;;;;;2.63;0.90;;;13.50;83.60;;;;;;5482289;26;20002;-67
2024/04/15 21:07:19;;;;;;;3.40;0.68;;;13.30;83.30;;;;;;5484961;26;19998;-67
2024/04/15 21:10:05;;;;;;;1.67;1.17;;;13.20;83.20;;;;;;5474379;26;20009;-66
2024/04/15 21:12:51;;;;;;;1.73;0.85;;;13.10;83.20;;;;;;5470246;26;19998;-67
2024/04/15 21:15:37;;;;;;;0.90;0.65;;;13.00;83.10;;;;;;5480324;26;20438;-67
2024/04/15 21:18:23;;;;;;;0.95;0.80;;;12.90;83.30;;;;;;5483079;26;19994;-67
2024/04/15 21:21:09;;;;;;;0.98;0.63;;;12.70;83.40;;;;;;5469915;26;20006;-67
2024/04/15 21:23:55;;;;;;;5.30;0.80;;;12.60;83.60;;;;;;5459763;26;20087;-67
2024/04/15 21:26:41;;;;;;;1.30;0.70;;;12.40;83.80;;;;;;5477170;26;20009;-67
2024/04/15 21:29:27;;;;;;;2.45;0.98;;;12.40;84.00;;;;;;5485713;26;20004;-67
2024/04/15 21:32:13;;;;;;;1.38;0.90;;;12.30;84.10;;;;;;5480076;26;19994;-67
2024/04/15 21:34:59;;;;;;;2.00;0.88;;;12.20;84.40;;;;;;5478977;26;20468;-68
2024/04/15 21:37:45;;;;;;;1.98;1.23;;;12.20;84.30;;;;;;5469645;26;20011;-67
2024/04/15 21:40:31;;;;;;;2.05;1.00;;;12.10;84.60;;;;;;5485985;26;20013;-67
2024/04/15 21:43:16;;;;;;;1.10;1.00;;;12.10;84.90;;;;;;5448348;26;20068;-67
2024/04/15 21:46:02;;;;;;;1.08;0.80;;;11.90;85.30;;;;;;5449960;26;19991;-68
2024/04/15 21:48:48;;;;;;;1.10;0.60;;;11.90;85.70;;;;;;5467012;26;19994;-69
2024/04/15 21:51:34;;;;;;;1.58;0.93;;;11.80;86.30;;;;;;5445613;26;20018;-68
2024/04/15 21:54:20;;;;;;;0.80;0.65;;;11.70;86.70;;;;;;5473420;26;19998;-69
2024/04/15 21:57:06;;;;;;;1.30;0.77;;;11.60;87.20;;;;;;5485716;26;19998;-69
2024/04/15 21:59:52;;;;;;;2.15;0.73;;;11.50;87.60;;;;;;5472494;26;20025;-72
2024/04/15 22:02:38;;;;;;;3.05;0.80;;;11.40;88.10;;;;;;5451916;26;19998;-72
2024/04/15 22:05:24;;;;;;;1.00;0.77;;;11.20;88.60;;;;;;5476924;26;20002;-72
2024/04/15 22:08:10;;;;;;;4.05;1.58;;;11.00;88.90;;;;;;5466322;26;20469;-71
2024/04/15 22:10:56;;;;;;;1.15;0.75;;;10.80;89.30;;;;;;5475013;26;19994;-68
2024/04/15 22:13:42;;;;;;;2.45;0.98;;;10.70;89.40;;;;;;5464414;26;20005;-68
2024/04/15 22:16:29;;;;;;;3.30;0.80;;;10.60;89.90;;;;;;5481955;26;20013;-68
2024/04/15 22:19:15;;;;;;;1.48;0.80;;;10.60;90.20;;;;;;5486052;26;19993;-68
2024/04/15 22:22:01;;;;;;;0.95;0.70;;;10.50;90.20;;;;;;5475914;26;20392;-69
2024/04/15 22:24:47;;;;;;;3.55;1.00;;;10.50;90.20;;;;;;5475582;26;20465;-68
2024/04/15 22:27:33;;;;;;;1.95;0.80;;;10.40;90.30;;;;;;5454064;26;19995;-69
2024/04/15 22:30:18;;;;;;;1.85;1.05;;;10.30;90.30;;;;;;5481857;26;20009;-67
2024/04/15 22:33:04;;;;;;;1.30;0.90;;;10.30;90.40;;;;;;5483768;26;20005;-68
2024/04/15 22:35:52;;;;;;;1.88;0.88;;;10.10;90.50;;;;;;5477101;26;20033;-68
2024/04/15 22:38:37;;;;;;;1.75;1.10;;;10.10;90.80;;;;;;5474192;26;19998;-68
2024/04/15 22:41:23;;;;;;;1.75;1.08;;;10.10;90.90;;;;;;5453250;26;19994;-68
2024/04/15 22:44:09;;;;;;;4.10;1.50;;;10.10;91.10;;;;;;5471335;26;20006;-67
2024/04/15 22:46:55;;;;;;;1.80;1.23;;;10.00;91.30;;;;;;5481506;26;20041;-68
2024/04/15 22:49:41;;;;;;;1.60;1.25;;;10.00;91.50;;;;;;5482552;26;20787;-69
2024/04/15 22:52:27;;;;;;;3.17;1.52;;;10.00;91.50;;;;;;5480644;26;20002;-69
2024/04/15 22:55:13;;;;;;;2.47;1.50;;;10.00;91.60;;;;;;5480167;26;20010;-69
2024/04/15 22:57:59;;;;;;;1.48;1.38;;;10.00;91.70;;;;;;5462708;26;20446;-70
2024/04/15 23:00:45;;;;;;;1.92;1.50;;;10.00;91.80;;;;;;5439251;26;19990;-69
2024/04/15 23:03:31;;;;;;;2.60;1.45;;;10.00;91.80;;;;;;5427683;26;19991;-68
2024/04/15 23:06:17;;;;;;;3.22;1.70;;;10.00;91.90;;;;;;5425365;26;19991;-67
2024/04/15 23:09:03;;;;;;;3.47;1.63;;;10.00;92.00;;;;;;5446697;26;20006;-67
2024/04/15 23:11:49;;;;;;;2.42;1.77;;;10.00;92.00;;;;;;5447604;26;20089;-68
2024/04/15 23:14:35;;;;;;;5.40;2.58;;;10.00;92.10;;;;;;5426533;26;19999;-67
2024/04/15 23:17:20;;;;;;;3.20;1.80;;;10.00;92.20;;;;;;5421998;26;20006;-66
2024/04/15 23:20:07;;;;;;;2.10;1.50;;;10.00;92.20;;;;;;5424006;26;19999;-67
2024/04/15 23:22:52;;;;;;;2.15;1.58;;;10.00;92.10;;;;;;5437406;26;19999;-67
2024/04/15 23:25:38;;;;;;;4.18;1.45;;;9.90;92.10;;;;;;5446908;26;20079;-68
2024/04/15 23:28:24;;;;;;;1.98;1.30;;;9.90;92.00;;;;;;5442439;26;20035;-68
2024/04/15 23:31:10;;;;;;;1.88;1.48;;;9.90;92.00;;;;;;5448610;26;20435;-68
2024/04/15 23:33:56;;;;;;;4.40;1.70;;;9.90;91.90;;;;;;5447506;26;20027;-67
2024/04/15 23:36:45;;;;;;;2.15;1.30;;;9.90;91.90;;;;;;5441828;26;20369;-69
2024/04/15 23:39:31;;;;;;;2.53;1.65;;;9.90;91.90;;;;;;5435098;26;20017;-69
2024/04/15 23:42:17;;;;;;;2.80;1.70;;;9.90;91.90;;;;;;5445190;26;20007;-68
2024/04/15 23:45:03;;;;;;;3.03;1.60;;;9.90;91.90;;;;;;5441630;26;20019;-69
2024/04/15 23:47:49;;;;;;;2.50;1.35;;;9.90;91.90;;;;;;5448055;26;19998;-69
2024/04/15 23:50:35;;;;;;;3.20;1.60;;;9.90;91.80;;;;;;5439916;26;20081;-69
2024/04/15 23:53:26;;;;;;;2.40;1.42;;;9.90;91.80;;;;;;5446184;26;20334;-73
2024/04/15 23:56:11;;;;;;;3.55;1.40;;;9.90;91.80;;;;;;5449293;26;19991;-75
2024/04/15 23:58:57;;;;;;;6.35;1.55;;;9.90;91.80;;;;;;5443100;26;20009;-74
